Ahmedabad Airport
VAAH : now visible

Airfield :











YOU CAN JOIN US ON...

 
LOGIN :

Register | Disclaimer

   EN    FR    IT 

 









Legend :    VFR   Marginal VFR   IFR   Intensive IFR   Very Intensive IFR
Visi :
Ceiling :
>= 8 km
>= 3000ft
5 to 8 km
1000 to 3000 ft
1500m to 5 km
500 to 1000 ft
800 to 1500m
200 to 500 ft
< 800m
< 200 ft
Symbols :   Thunderstorms  Fog  Heavy snow  Heavy precipitations  Wind > 20 kt






- Airport Elevation : 189 ft
- IATA code : AMD


VAAH - Ahmedabad

CURRENT METAR :
  • 011700Z 28003KT 4000 FU NSC 29/14 Q1011 NOSIG

EXPIRED METARs :
  • 011630Z 00000KT 4000 FU NSC 28/13 Q1011 NOSIG
  • 011600Z 00000KT 4000 FU NSC 28/13 Q1011 NOSIG
  • 011530Z 00000KT 4000 FU NSC 29/12 Q1010 NOSIG
  • 011500Z 00000KT 4000 FU NSC 30/13 Q1010 NOSIG
  • 011430Z 00000KT 4000 FU NSC 31/12 Q1010 NOSIG

TAF TAF VAAH
Valid from the 01 at 15:00 until the 02 at 00:00 UTC


011400Z 0115/0124 00000KT 4000 FU NSC
BECMG 0118/0120 34004KT



MET'MAP, your aeronautical weather chart ! - Copyright ORBIFLY December 2007 - Disclaimer

ORBIFLY MET'MAP TEAM :

Programming & Development : Alexandra Zaïnal
Concept & original design : Baudouin d'Aumeries
Assistance for programming : Marc-Olivier Méhu
Technical & hardware support : Manuel Goepfert

Contact : metmap@orbifly.com




SOURCES & CREDITS :

   NOAA       Earth
Advisory